sensor_id;sensor_type;location;lat;lon;timestamp;pressure;altitude;pressure_sealevel;temperature
70831;BMP180;58451;51.550;7.208;2022-08-21T00:01:52;101012.00;;;17.00
70831;BMP180;58451;51.550;7.208;2022-08-21T00:04:19;101013.00;;;17.00
70831;BMP180;58451;51.550;7.208;2022-08-21T00:06:52;101004.00;;;17.00
70831;BMP180;58451;51.550;7.208;2022-08-21T00:09:20;100999.60;;;17.00
70831;BMP180;58451;51.550;7.208;2022-08-21T00:11:47;100999.80;;;17.00
70831;BMP180;58451;51.550;7.208;2022-08-21T00:14:15;101001.00;;;16.92
70831;BMP180;58451;51.550;7.208;2022-08-21T00:16:43;100992.00;;;16.90
70831;BMP180;58451;51.550;7.208;2022-08-21T00:19:10;100990.20;;;16.84
70831;BMP180;58451;51.550;7.208;2022-08-21T00:21:37;100983.80;;;16.80
70831;BMP180;58451;51.550;7.208;2022-08-21T00:24:04;100978.40;;;16.72
70831;BMP180;58451;51.550;7.208;2022-08-21T00:26:33;100973.40;;;16.70
70831;BMP180;58451;51.550;7.208;2022-08-21T00:29:03;100978.00;;;16.62
70831;BMP180;58451;51.550;7.208;2022-08-21T00:31:30;100974.60;;;16.60
70831;BMP180;58451;51.550;7.208;2022-08-21T00:33:58;100974.40;;;16.50
70831;BMP180;58451;51.550;7.208;2022-08-21T00:36:27;100977.20;;;16.50
70831;BMP180;58451;51.550;7.208;2022-08-21T00:38:54;100976.80;;;16.40
70831;BMP180;58451;51.550;7.208;2022-08-21T00:41:21;100972.40;;;16.40
70831;BMP180;58451;51.550;7.208;2022-08-21T00:44:08;100971.40;;;16.30
70831;BMP180;58451;51.550;7.208;2022-08-21T00:46:38;100966.40;;;16.20
70831;BMP180;58451;51.550;7.208;2022-08-21T00:49:07;100970.00;;;16.20
70831;BMP180;58451;51.550;7.208;2022-08-21T00:54:13;100970.60;;;16.10
70831;BMP180;58451;51.550;7.208;2022-08-21T00:56:48;100969.40;;;16.10
70831;BMP180;58451;51.550;7.208;2022-08-21T00:59:19;100975.80;;;16.10
70831;BMP180;58451;51.550;7.208;2022-08-21T01:01:48;100977.20;;;16.08
70831;BMP180;58451;51.550;7.208;2022-08-21T01:04:16;100975.00;;;16.10
70831;BMP180;58451;51.550;7.208;2022-08-21T01:06:44;100976.80;;;16.10
70831;BMP180;58451;51.550;7.208;2022-08-21T01:09:13;100976.60;;;16.10
70831;BMP180;58451;51.550;7.208;2022-08-21T01:11:41;100973.40;;;16.18
70831;BMP180;58451;51.550;7.208;2022-08-21T01:14:14;100974.60;;;16.20
70831;BMP180;58451;51.550;7.208;2022-08-21T01:16:45;100975.60;;;16.20
70831;BMP180;58451;51.550;7.208;2022-08-21T01:19:16;100973.40;;;16.20
70831;BMP180;58451;51.550;7.208;2022-08-21T01:21:43;100976.80;;;16.20
70831;BMP180;58451;51.550;7.208;2022-08-21T01:24:12;100977.40;;;16.20
70831;BMP180;58451;51.550;7.208;2022-08-21T01:26:40;100978.80;;;16.20
70831;BMP180;58451;51.550;7.208;2022-08-21T01:29:41;100978.60;;;16.20
70831;BMP180;58451;51.550;7.208;2022-08-21T01:32:14;100979.40;;;16.18
70831;BMP180;58451;51.550;7.208;2022-08-21T01:34:45;100979.80;;;16.10
70831;BMP180;58451;51.550;7.208;2022-08-21T01:37:13;100978.00;;;16.10
70831;BMP180;58451;51.550;7.208;2022-08-21T01:39:44;100976.20;;;16.00
70831;BMP180;58451;51.550;7.208;2022-08-21T01:42:13;100978.60;;;15.96
70831;BMP180;58451;51.550;7.208;2022-08-21T01:44:41;100980.20;;;15.90
70831;BMP180;58451;51.550;7.208;2022-08-21T01:47:13;100979.00;;;15.80
70831;BMP180;58451;51.550;7.208;2022-08-21T01:49:44;100977.80;;;15.80
70831;BMP180;58451;51.550;7.208;2022-08-21T01:52:11;100971.60;;;15.70
70831;BMP180;58451;51.550;7.208;2022-08-21T01:54:39;100970.00;;;15.60
70831;BMP180;58451;51.550;7.208;2022-08-21T01:57:07;100967.00;;;15.58
70831;BMP180;58451;51.550;7.208;2022-08-21T01:59:35;100965.40;;;15.50
70831;BMP180;58451;51.550;7.208;2022-08-21T02:02:03;100963.00;;;15.40
70831;BMP180;58451;51.550;7.208;2022-08-21T02:04:30;100963.80;;;15.38
70831;BMP180;58451;51.550;7.208;2022-08-21T02:06:59;100963.60;;;15.30
70831;BMP180;58451;51.550;7.208;2022-08-21T02:09:27;100959.60;;;15.20
70831;BMP180;58451;51.550;7.208;2022-08-21T02:11:55;100964.00;;;15.20
70831;BMP180;58451;51.550;7.208;2022-08-21T02:14:23;100956.20;;;15.10
70831;BMP180;58451;51.550;7.208;2022-08-21T02:16:58;100956.40;;;15.10
70831;BMP180;58451;51.550;7.208;2022-08-21T02:19:37;100960.20;;;15.00
70831;BMP180;58451;51.550;7.208;2022-08-21T02:22:10;100958.20;;;15.00
70831;BMP180;58451;51.550;7.208;2022-08-21T02:24:38;100956.00;;;14.90
70831;BMP180;58451;51.550;7.208;2022-08-21T02:27:24;100950.80;;;14.82
70831;BMP180;58451;51.550;7.208;2022-08-21T02:29:56;100947.40;;;14.80
70831;BMP180;58451;51.550;7.208;2022-08-21T02:32:25;100950.40;;;14.78
70831;BMP180;58451;51.550;7.208;2022-08-21T02:34:52;100950.80;;;14.70
70831;BMP180;58451;51.550;7.208;2022-08-21T02:37:22;100947.60;;;14.70
70831;BMP180;58451;51.550;7.208;2022-08-21T02:39:50;100945.00;;;14.60
70831;BMP180;58451;51.550;7.208;2022-08-21T02:42:17;100942.60;;;14.56
70831;BMP180;58451;51.550;7.208;2022-08-21T02:44:43;100942.20;;;14.50
70831;BMP180;58451;51.550;7.208;2022-08-21T02:47:10;100939.80;;;14.50
70831;BMP180;58451;51.550;7.208;2022-08-21T02:49:37;100943.20;;;14.40
70831;BMP180;58451;51.550;7.208;2022-08-21T02:52:04;100947.00;;;14.40
70831;BMP180;58451;51.550;7.208;2022-08-21T02:54:32;100948.20;;;14.30
70831;BMP180;58451;51.550;7.208;2022-08-21T02:56:59;100951.40;;;14.30
70831;BMP180;58451;51.550;7.208;2022-08-21T02:59:26;100949.60;;;14.30
70831;BMP180;58451;51.550;7.208;2022-08-21T03:01:53;100951.20;;;14.20
70831;BMP180;58451;51.550;7.208;2022-08-21T03:04:22;100949.60;;;14.20
70831;BMP180;58451;51.550;7.208;2022-08-21T03:06:49;100950.00;;;14.12
70831;BMP180;58451;51.550;7.208;2022-08-21T03:09:15;100947.20;;;14.10
70831;BMP180;58451;51.550;7.208;2022-08-21T03:11:42;100947.00;;;14.10
70831;BMP180;58451;51.550;7.208;2022-08-21T03:14:10;100940.80;;;14.04
70831;BMP180;58451;51.550;7.208;2022-08-21T03:16:37;100941.20;;;14.00
70831;BMP180;58451;51.550;7.208;2022-08-21T03:19:03;100938.00;;;14.00
70831;BMP180;58451;51.550;7.208;2022-08-21T03:21:31;100936.00;;;14.00
70831;BMP180;58451;51.550;7.208;2022-08-21T03:23:57;100930.60;;;13.94
70831;BMP180;58451;51.550;7.208;2022-08-21T03:26:29;100929.20;;;13.90
70831;BMP180;58451;51.550;7.208;2022-08-21T03:28:57;100926.60;;;13.90
70831;BMP180;58451;51.550;7.208;2022-08-21T03:31:24;100926.00;;;13.90
70831;BMP180;58451;51.550;7.208;2022-08-21T03:33:55;100928.80;;;13.88
70831;BMP180;58451;51.550;7.208;2022-08-21T03:36:23;100924.20;;;13.80
70831;BMP180;58451;51.550;7.208;2022-08-21T03:38:50;100929.20;;;13.80
70831;BMP180;58451;51.550;7.208;2022-08-21T03:41:17;100928.00;;;13.80
70831;BMP180;58451;51.550;7.208;2022-08-21T03:43:44;100929.20;;;13.80
70831;BMP180;58451;51.550;7.208;2022-08-21T03:46:11;100930.00;;;13.80
70831;BMP180;58451;51.550;7.208;2022-08-21T03:48:38;100925.60;;;13.80
70831;BMP180;58451;51.550;7.208;2022-08-21T03:51:06;100928.20;;;13.80
70831;BMP180;58451;51.550;7.208;2022-08-21T03:53:33;100926.20;;;13.80
70831;BMP180;58451;51.550;7.208;2022-08-21T03:56:00;100927.40;;;13.80
70831;BMP180;58451;51.550;7.208;2022-08-21T03:58:28;100927.60;;;13.80
70831;BMP180;58451;51.550;7.208;2022-08-21T04:01:00;100928.60;;;13.78
70831;BMP180;58451;51.550;7.208;2022-08-21T04:03:28;100931.60;;;13.70
70831;BMP180;58451;51.550;7.208;2022-08-21T04:05:55;100927.20;;;13.70
70831;BMP180;58451;51.550;7.208;2022-08-21T04:08:22;100931.60;;;13.60
70831;BMP180;58451;51.550;7.208;2022-08-21T04:10:53;100930.60;;;13.60
70831;BMP180;58451;51.550;7.208;2022-08-21T04:13:21;100932.80;;;13.60
70831;BMP180;58451;51.550;7.208;2022-08-21T04:15:49;100931.40;;;13.54
70831;BMP180;58451;51.550;7.208;2022-08-21T04:18:16;100935.80;;;13.50
70831;BMP180;58451;51.550;7.208;2022-08-21T04:20:47;100943.20;;;13.50
70831;BMP180;58451;51.550;7.208;2022-08-21T04:23:18;100941.60;;;13.50
70831;BMP180;58451;51.550;7.208;2022-08-21T04:25:52;100941.20;;;13.50
70831;BMP180;58451;51.550;7.208;2022-08-21T04:28:21;100944.60;;;13.40
70831;BMP180;58451;51.550;7.208;2022-08-21T04:30:51;100944.40;;;13.40
70831;BMP180;58451;51.550;7.208;2022-08-21T04:33:20;100947.00;;;13.40
70831;BMP180;58451;51.550;7.208;2022-08-21T04:35:48;100948.00;;;13.40
70831;BMP180;58451;51.550;7.208;2022-08-21T04:38:15;100947.80;;;13.40
70831;BMP180;58451;51.550;7.208;2022-08-21T04:40:43;100946.60;;;13.40
70831;BMP180;58451;51.550;7.208;2022-08-21T04:43:11;100942.80;;;13.40
70831;BMP180;58451;51.550;7.208;2022-08-21T04:45:43;100941.40;;;13.40
70831;BMP180;58451;51.550;7.208;2022-08-21T04:48:13;100941.00;;;13.40
70831;BMP180;58451;51.550;7.208;2022-08-21T04:50:57;100939.60;;;13.40
70831;BMP180;58451;51.550;7.208;2022-08-21T04:53:40;100949.00;;;13.40
70831;BMP180;58451;51.550;7.208;2022-08-21T04:56:13;100953.20;;;13.46
70831;BMP180;58451;51.550;7.208;2022-08-21T04:58:42;100954.20;;;13.50
70831;BMP180;58451;51.550;7.208;2022-08-21T05:01:17;100952.60;;;13.50
70831;BMP180;58451;51.550;7.208;2022-08-21T05:03:49;100954.80;;;13.58
70831;BMP180;58451;51.550;7.208;2022-08-21T05:06:18;100954.80;;;13.60
70831;BMP180;58451;51.550;7.208;2022-08-21T05:08:48;100955.00;;;13.70
70831;BMP180;58451;51.550;7.208;2022-08-21T05:11:28;100957.60;;;13.80
70831;BMP180;58451;51.550;7.208;2022-08-21T05:13:57;100955.20;;;13.90
70831;BMP180;58451;51.550;7.208;2022-08-21T05:16:24;100957.00;;;14.00
70831;BMP180;58451;51.550;7.208;2022-08-21T05:19:05;100959.80;;;14.10
70831;BMP180;58451;51.550;7.208;2022-08-21T05:21:39;100958.40;;;14.20
70831;BMP180;58451;51.550;7.208;2022-08-21T05:24:07;100959.00;;;14.34
70831;BMP180;58451;51.550;7.208;2022-08-21T05:26:34;100958.00;;;14.50
70831;BMP180;58451;51.550;7.208;2022-08-21T05:29:16;100963.60;;;14.70
70831;BMP180;58451;51.550;7.208;2022-08-21T05:31:45;100963.40;;;14.80
70831;BMP180;58451;51.550;7.208;2022-08-21T05:34:24;100969.60;;;14.90
70831;BMP180;58451;51.550;7.208;2022-08-21T05:36:50;100966.80;;;14.90
70831;BMP180;58451;51.550;7.208;2022-08-21T05:39:17;100967.40;;;15.00
70831;BMP180;58451;51.550;7.208;2022-08-21T05:41:44;100962.20;;;15.10
70831;BMP180;58451;51.550;7.208;2022-08-21T05:44:11;100966.60;;;15.20
70831;BMP180;58451;51.550;7.208;2022-08-21T05:46:38;100971.60;;;15.30
70831;BMP180;58451;51.550;7.208;2022-08-21T05:49:05;100968.60;;;15.40
70831;BMP180;58451;51.550;7.208;2022-08-21T05:51:32;100973.60;;;15.50
70831;BMP180;58451;51.550;7.208;2022-08-21T05:53:59;100978.00;;;15.68
70831;BMP180;58451;51.550;7.208;2022-08-21T05:56:26;100975.00;;;15.80
70831;BMP180;58451;51.550;7.208;2022-08-21T05:58:52;100974.60;;;15.90
70831;BMP180;58451;51.550;7.208;2022-08-21T06:01:19;100974.00;;;16.00
70831;BMP180;58451;51.550;7.208;2022-08-21T06:03:46;100974.80;;;16.08
70831;BMP180;58451;51.550;7.208;2022-08-21T06:06:13;100971.40;;;16.20
70831;BMP180;58451;51.550;7.208;2022-08-21T06:08:40;100964.40;;;16.30
70831;BMP180;58451;51.550;7.208;2022-08-21T06:11:08;100963.60;;;16.40
70831;BMP180;58451;51.550;7.208;2022-08-21T06:13:36;100958.00;;;16.50
70831;BMP180;58451;51.550;7.208;2022-08-21T06:16:12;100960.40;;;16.64
70831;BMP180;58451;51.550;7.208;2022-08-21T06:18:44;100956.40;;;16.80
70831;BMP180;58451;51.550;7.208;2022-08-21T06:21:12;100954.40;;;16.90
70831;BMP180;58451;51.550;7.208;2022-08-21T06:23:41;100951.20;;;17.00
70831;BMP180;58451;51.550;7.208;2022-08-21T06:26:12;100948.00;;;17.10
70831;BMP180;58451;51.550;7.208;2022-08-21T06:28:41;100955.00;;;17.22
70831;BMP180;58451;51.550;7.208;2022-08-21T06:31:21;100958.00;;;17.30
70831;BMP180;58451;51.550;7.208;2022-08-21T06:33:49;100960.40;;;17.44
70831;BMP180;58451;51.550;7.208;2022-08-21T06:36:17;100960.80;;;17.60
70831;BMP180;58451;51.550;7.208;2022-08-21T06:38:44;100954.40;;;17.70
70831;BMP180;58451;51.550;7.208;2022-08-21T06:41:19;100957.80;;;17.80
70831;BMP180;58451;51.550;7.208;2022-08-21T06:43:52;100962.60;;;17.90
70831;BMP180;58451;51.550;7.208;2022-08-21T06:46:19;100959.20;;;18.00
70831;BMP180;58451;51.550;7.208;2022-08-21T06:48:46;100955.00;;;18.10
70831;BMP180;58451;51.550;7.208;2022-08-21T06:51:13;100958.80;;;18.30
70831;BMP180;58451;51.550;7.208;2022-08-21T06:53:40;100961.40;;;18.40
70831;BMP180;58451;51.550;7.208;2022-08-21T06:56:07;100958.20;;;18.42
70831;BMP180;58451;51.550;7.208;2022-08-21T06:58:34;100957.80;;;18.60
70831;BMP180;58451;51.550;7.208;2022-08-21T07:01:02;100960.60;;;18.70
70831;BMP180;58451;51.550;7.208;2022-08-21T07:03:39;100960.00;;;18.80
70831;BMP180;58451;51.550;7.208;2022-08-21T07:06:08;100958.20;;;18.90
70831;BMP180;58451;51.550;7.208;2022-08-21T07:08:37;100960.40;;;18.96
70831;BMP180;58451;51.550;7.208;2022-08-21T07:11:14;100956.20;;;19.10
70831;BMP180;58451;51.550;7.208;2022-08-21T07:13:44;100956.80;;;19.20
70831;BMP180;58451;51.550;7.208;2022-08-21T07:16:11;100949.00;;;19.24
70831;BMP180;58451;51.550;7.208;2022-08-21T07:18:38;100950.20;;;19.30
70831;BMP180;58451;51.550;7.208;2022-08-21T07:21:07;100949.80;;;19.32
70831;BMP180;58451;51.550;7.208;2022-08-21T07:23:41;100946.20;;;19.42
70831;BMP180;58451;51.550;7.208;2022-08-21T07:26:10;100945.60;;;19.50
70831;BMP180;58451;51.550;7.208;2022-08-21T07:28:37;100949.80;;;19.60
70831;BMP180;58451;51.550;7.208;2022-08-21T07:31:05;100949.40;;;19.70
70831;BMP180;58451;51.550;7.208;2022-08-21T07:33:34;100946.00;;;19.88
70831;BMP180;58451;51.550;7.208;2022-08-21T07:36:02;100952.20;;;20.00
70831;BMP180;58451;51.550;7.208;2022-08-21T07:38:29;100951.60;;;20.10
70831;BMP180;58451;51.550;7.208;2022-08-21T07:40:59;100944.80;;;20.10
70831;BMP180;58451;51.550;7.208;2022-08-21T07:43:29;100953.20;;;20.20
70831;BMP180;58451;51.550;7.208;2022-08-21T07:45:56;100954.40;;;20.20
70831;BMP180;58451;51.550;7.208;2022-08-21T07:48:24;100947.80;;;20.30
70831;BMP180;58451;51.550;7.208;2022-08-21T07:50:51;100949.00;;;20.30
70831;BMP180;58451;51.550;7.208;2022-08-21T07:53:18;100942.00;;;20.32
70831;BMP180;58451;51.550;7.208;2022-08-21T07:55:45;100939.00;;;20.40
70831;BMP180;58451;51.550;7.208;2022-08-21T07:58:12;100942.00;;;20.60
70831;BMP180;58451;51.550;7.208;2022-08-21T08:00:40;100945.80;;;20.80
70831;BMP180;58451;51.550;7.208;2022-08-21T08:03:07;100952.60;;;20.80
70831;BMP180;58451;51.550;7.208;2022-08-21T08:05:36;100950.80;;;20.78
70831;BMP180;58451;51.550;7.208;2022-08-21T08:08:04;100951.20;;;20.90
70831;BMP180;58451;51.550;7.208;2022-08-21T08:10:31;100957.40;;;21.00
70831;BMP180;58451;51.550;7.208;2022-08-21T08:12:58;100955.80;;;21.00
70831;BMP180;58451;51.550;7.208;2022-08-21T08:15:27;100956.60;;;20.92
70831;BMP180;58451;51.550;7.208;2022-08-21T08:17:56;100953.80;;;20.84
70831;BMP180;58451;51.550;7.208;2022-08-21T08:20:25;100949.60;;;20.90
70831;BMP180;58451;51.550;7.208;2022-08-21T08:22:56;100951.20;;;21.00
70831;BMP180;58451;51.550;7.208;2022-08-21T08:25:26;100952.40;;;21.10
70831;BMP180;58451;51.550;7.208;2022-08-21T08:28:04;100958.00;;;21.20
70831;BMP180;58451;51.550;7.208;2022-08-21T08:30:45;100953.60;;;21.30
70831;BMP180;58451;51.550;7.208;2022-08-21T08:33:14;100955.20;;;21.50
70831;BMP180;58451;51.550;7.208;2022-08-21T08:35:45;100951.40;;;21.52
70831;BMP180;58451;51.550;7.208;2022-08-21T08:38:16;100950.20;;;21.50
70831;BMP180;58451;51.550;7.208;2022-08-21T08:41:13;100948.40;;;21.50
70831;BMP180;58451;51.550;7.208;2022-08-21T08:43:48;100948.60;;;21.40
70831;BMP180;58451;51.550;7.208;2022-08-21T08:46:31;100949.20;;;21.30
70831;BMP180;58451;51.550;7.208;2022-08-21T08:52:09;100937.60;;;21.20
70831;BMP180;58451;51.550;7.208;2022-08-21T08:55:00;100948.00;;;21.40
70831;BMP180;58451;51.550;7.208;2022-08-21T08:57:30;100953.40;;;21.40
70831;BMP180;58451;51.550;7.208;2022-08-21T09:00:07;100953.00;;;21.30
70831;BMP180;58451;51.550;7.208;2022-08-21T09:02:41;100948.40;;;21.40
70831;BMP180;58451;51.550;7.208;2022-08-21T09:05:25;100952.80;;;21.60
70831;BMP180;58451;51.550;7.208;2022-08-21T09:11:10;100940.80;;;21.78
70831;BMP180;58451;51.550;7.208;2022-08-21T09:13:53;100938.60;;;21.90
70831;BMP180;58451;51.550;7.208;2022-08-21T09:16:46;100934.60;;;21.90
70831;BMP180;58451;51.550;7.208;2022-08-21T09:20:07;100939.80;;;22.00
70831;BMP180;58451;51.550;7.208;2022-08-21T09:23:12;100929.80;;;22.10
70831;BMP180;58451;51.550;7.208;2022-08-21T09:26:05;100928.60;;;22.34
70831;BMP180;58451;51.550;7.208;2022-08-21T09:28:35;100923.40;;;22.30
70831;BMP180;58451;51.550;7.208;2022-08-21T09:31:22;100925.80;;;22.30
70831;BMP180;58451;51.550;7.208;2022-08-21T09:34:04;100921.40;;;22.50
70831;BMP180;58451;51.550;7.208;2022-08-21T09:36:37;100924.40;;;22.50
70831;BMP180;58451;51.550;7.208;2022-08-21T09:39:06;100926.40;;;22.44
70831;BMP180;58451;51.550;7.208;2022-08-21T09:41:35;100925.60;;;22.44
70831;BMP180;58451;51.550;7.208;2022-08-21T09:44:07;100924.60;;;22.60
70831;BMP180;58451;51.550;7.208;2022-08-21T09:46:34;100929.00;;;22.60
70831;BMP180;58451;51.550;7.208;2022-08-21T09:49:04;100919.60;;;22.50
70831;BMP180;58451;51.550;7.208;2022-08-21T09:51:35;100924.60;;;22.68
70831;BMP180;58451;51.550;7.208;2022-08-21T09:56:56;100923.40;;;22.60
70831;BMP180;58451;51.550;7.208;2022-08-21T09:59:46;100919.20;;;22.40
70831;BMP180;58451;51.550;7.208;2022-08-21T10:02:31;100917.00;;;22.30
70831;BMP180;58451;51.550;7.208;2022-08-21T10:05:00;100920.20;;;22.40
70831;BMP180;58451;51.550;7.208;2022-08-21T10:07:31;100915.60;;;22.40
70831;BMP180;58451;51.550;7.208;2022-08-21T10:10:22;100916.60;;;22.50
70831;BMP180;58451;51.550;7.208;2022-08-21T10:13:12;100913.20;;;22.46
70831;BMP180;58451;51.550;7.208;2022-08-21T10:16:46;100909.40;;;22.60
70831;BMP180;58451;51.550;7.208;2022-08-21T10:33:32;100915.00;;;23.30
70831;BMP180;58451;51.550;7.208;2022-08-21T10:36:21;100906.40;;;23.50
70831;BMP180;58451;51.550;7.208;2022-08-21T10:47:49;100899.40;;;23.90
70831;BMP180;58451;51.550;7.208;2022-08-21T10:50:42;100900.00;;;24.00
70831;BMP180;58451;51.550;7.208;2022-08-21T10:56:22;100902.60;;;23.90
70831;BMP180;58451;51.550;7.208;2022-08-21T11:02:47;100894.20;;;23.84
70831;BMP180;58451;51.550;7.208;2022-08-21T11:08:08;100899.00;;;23.90
70831;BMP180;58451;51.550;7.208;2022-08-21T11:11:01;100894.00;;;23.90
70831;BMP180;58451;51.550;7.208;2022-08-21T11:13:50;100886.00;;;24.10
70831;BMP180;58451;51.550;7.208;2022-08-21T11:16:45;100890.60;;;24.08
70831;BMP180;58451;51.550;7.208;2022-08-21T11:19:28;100888.80;;;24.10
70831;BMP180;58451;51.550;7.208;2022-08-21T11:25:17;100885.60;;;24.40
70831;BMP180;58451;51.550;7.208;2022-08-21T11:28:08;100893.20;;;24.22
70831;BMP180;58451;51.550;7.208;2022-08-21T11:34:22;100889.20;;;24.64
70831;BMP180;58451;51.550;7.208;2022-08-21T11:37:36;100880.80;;;24.82
70831;BMP180;58451;51.550;7.208;2022-08-21T11:40:34;100883.00;;;25.00
70831;BMP180;58451;51.550;7.208;2022-08-21T11:45:56;100883.00;;;24.90
70831;BMP180;58451;51.550;7.208;2022-08-21T11:51:45;100894.40;;;25.16
70831;BMP180;58451;51.550;7.208;2022-08-21T11:54:35;100900.40;;;25.18
70831;BMP180;58451;51.550;7.208;2022-08-21T11:57:55;100899.80;;;25.20
70831;BMP180;58451;51.550;7.208;2022-08-21T12:00:31;100904.00;;;25.30
70831;BMP180;58451;51.550;7.208;2022-08-21T12:06:05;100901.20;;;25.40
70831;BMP180;58451;51.550;7.208;2022-08-21T12:08:37;100892.00;;;25.40
70831;BMP180;58451;51.550;7.208;2022-08-21T12:11:25;100892.40;;;25.40
70831;BMP180;58451;51.550;7.208;2022-08-21T12:16:37;100883.60;;;25.36
70831;BMP180;58451;51.550;7.208;2022-08-21T12:22:13;100886.60;;;25.70
70831;BMP180;58451;51.550;7.208;2022-08-21T12:24:50;100888.80;;;25.74
70831;BMP180;58451;51.550;7.208;2022-08-21T12:33:01;100893.40;;;25.72
70831;BMP180;58451;51.550;7.208;2022-08-21T12:35:41;100879.20;;;25.40
70831;BMP180;58451;51.550;7.208;2022-08-21T12:38:28;100877.60;;;25.60
70831;BMP180;58451;51.550;7.208;2022-08-21T12:41:22;100889.20;;;25.70
70831;BMP180;58451;51.550;7.208;2022-08-21T12:46:44;100889.80;;;25.80
70831;BMP180;58451;51.550;7.208;2022-08-21T12:49:31;100879.60;;;25.60
70831;BMP180;58451;51.550;7.208;2022-08-21T12:52:16;100885.80;;;25.58
70831;BMP180;58451;51.550;7.208;2022-08-21T12:54:47;100883.00;;;25.60
70831;BMP180;58451;51.550;7.208;2022-08-21T12:57:36;100875.80;;;25.90
70831;BMP180;58451;51.550;7.208;2022-08-21T13:00:08;100874.20;;;26.00
70831;BMP180;58451;51.550;7.208;2022-08-21T13:02:48;100868.80;;;26.00
70831;BMP180;58451;51.550;7.208;2022-08-21T13:07:52;100876.00;;;26.10
70831;BMP180;58451;51.550;7.208;2022-08-21T13:10:28;100876.80;;;26.14
70831;BMP180;58451;51.550;7.208;2022-08-21T13:13:02;100872.00;;;25.94
70831;BMP180;58451;51.550;7.208;2022-08-21T13:15:40;100874.40;;;25.96
70831;BMP180;58451;51.550;7.208;2022-08-21T13:18:27;100869.20;;;26.08
70831;BMP180;58451;51.550;7.208;2022-08-21T13:21:14;100867.40;;;25.90
70831;BMP180;58451;51.550;7.208;2022-08-21T13:23:41;100866.00;;;25.90
70831;BMP180;58451;51.550;7.208;2022-08-21T13:26:18;100878.00;;;26.00
70831;BMP180;58451;51.550;7.208;2022-08-21T13:28:47;100866.60;;;25.90
70831;BMP180;58451;51.550;7.208;2022-08-21T13:31:26;100863.60;;;26.10
70831;BMP180;58451;51.550;7.208;2022-08-21T13:33:55;100867.00;;;26.32
70831;BMP180;58451;51.550;7.208;2022-08-21T13:36:29;100862.80;;;26.40
70831;BMP180;58451;51.550;7.208;2022-08-21T13:38:58;100863.00;;;26.50
70831;BMP180;58451;51.550;7.208;2022-08-21T13:41:31;100865.20;;;26.70
70831;BMP180;58451;51.550;7.208;2022-08-21T13:44:14;100863.40;;;26.80
70831;BMP180;58451;51.550;7.208;2022-08-21T13:46:48;100862.80;;;26.80
70831;BMP180;58451;51.550;7.208;2022-08-21T13:49:28;100866.60;;;26.60
70831;BMP180;58451;51.550;7.208;2022-08-21T13:51:56;100871.20;;;26.40
70831;BMP180;58451;51.550;7.208;2022-08-21T13:54:39;100859.60;;;26.22
70831;BMP180;58451;51.550;7.208;2022-08-21T13:57:29;100864.60;;;26.20
70831;BMP180;58451;51.550;7.208;2022-08-21T14:00:26;100864.20;;;26.12
70831;BMP180;58451;51.550;7.208;2022-08-21T14:03:03;100865.20;;;26.00
70831;BMP180;58451;51.550;7.208;2022-08-21T14:05:36;100862.60;;;26.00
70831;BMP180;58451;51.550;7.208;2022-08-21T14:08:35;100855.40;;;26.30
70831;BMP180;58451;51.550;7.208;2022-08-21T14:11:10;100856.20;;;26.92
70831;BMP180;58451;51.550;7.208;2022-08-21T14:14:20;100869.80;;;27.38
70831;BMP180;58451;51.550;7.208;2022-08-21T14:17:07;100866.40;;;27.28
70831;BMP180;58451;51.550;7.208;2022-08-21T14:19:54;100861.00;;;26.92
70831;BMP180;58451;51.550;7.208;2022-08-21T14:25:02;100867.00;;;26.60
70831;BMP180;58451;51.550;7.208;2022-08-21T14:27:34;100866.20;;;26.50
70831;BMP180;58451;51.550;7.208;2022-08-21T14:30:14;100862.80;;;26.30
70831;BMP180;58451;51.550;7.208;2022-08-21T14:32:42;100860.20;;;26.20
70831;BMP180;58451;51.550;7.208;2022-08-21T14:35:13;100865.00;;;26.30
70831;BMP180;58451;51.550;7.208;2022-08-21T14:37:44;100870.60;;;26.20
70831;BMP180;58451;51.550;7.208;2022-08-21T14:40:16;100867.20;;;26.00
70831;BMP180;58451;51.550;7.208;2022-08-21T14:42:45;100869.60;;;25.90
70831;BMP180;58451;51.550;7.208;2022-08-21T14:45:27;100862.40;;;25.90
70831;BMP180;58451;51.550;7.208;2022-08-21T14:47:57;100862.80;;;25.90
70831;BMP180;58451;51.550;7.208;2022-08-21T14:50:24;100857.60;;;25.90
70831;BMP180;58451;51.550;7.208;2022-08-21T14:52:54;100854.60;;;25.80
70831;BMP180;58451;51.550;7.208;2022-08-21T14:55:21;100854.40;;;25.98
70831;BMP180;58451;51.550;7.208;2022-08-21T14:57:51;100851.00;;;26.20
70831;BMP180;58451;51.550;7.208;2022-08-21T15:00:22;100852.40;;;26.40
70831;BMP180;58451;51.550;7.208;2022-08-21T15:03:01;100854.40;;;26.30
70831;BMP180;58451;51.550;7.208;2022-08-21T15:05:28;100852.80;;;26.28
70831;BMP180;58451;51.550;7.208;2022-08-21T15:08:00;100853.40;;;26.30
70831;BMP180;58451;51.550;7.208;2022-08-21T15:10:31;100852.40;;;26.30
70831;BMP180;58451;51.550;7.208;2022-08-21T15:13:00;100839.80;;;26.40
70831;BMP180;58451;51.550;7.208;2022-08-21T15:15:32;100838.20;;;26.84
70831;BMP180;58451;51.550;7.208;2022-08-21T15:18:00;100825.20;;;27.72
70831;BMP180;58451;51.550;7.208;2022-08-21T15:20:27;100825.20;;;29.04
70831;BMP180;58451;51.550;7.208;2022-08-21T15:22:54;100826.60;;;30.12
70831;BMP180;58451;51.550;7.208;2022-08-21T15:25:21;100842.80;;;31.16
70831;BMP180;58451;51.550;7.208;2022-08-21T15:27:47;100827.20;;;31.42
70831;BMP180;58451;51.550;7.208;2022-08-21T15:30:15;100806.00;;;32.28
70831;BMP180;58451;51.550;7.208;2022-08-21T15:32:41;100801.20;;;34.08
70831;BMP180;58451;51.550;7.208;2022-08-21T15:35:09;100804.80;;;35.36
70831;BMP180;58451;51.550;7.208;2022-08-21T15:37:36;100800.80;;;35.60
70831;BMP180;58451;51.550;7.208;2022-08-21T15:40:04;100798.40;;;36.18
70831;BMP180;58451;51.550;7.208;2022-08-21T15:42:34;100848.40;;;37.08
70831;BMP180;58451;51.550;7.208;2022-08-21T15:45:03;100854.60;;;36.32
70831;BMP180;58451;51.550;7.208;2022-08-21T15:47:34;100857.20;;;34.90
70831;BMP180;58451;51.550;7.208;2022-08-21T15:50:07;100859.40;;;33.44